Osg Courageous — WDF7122 — position and weather

sailwx.info

Track history (hours):
 
Tides and Currents Weather Stations Pressure Air Temp Water Temp Dewpoint Dewpoint Depression Visibility Wind Speed Wind Dir Waves Ship Positions

Osg Courageous

More information available from US FCC via Universal Licensing System and Coast Guard Vessel Documentation Center.

Last reported at 2014-Aug-22 01:29 UTC. Time now 2014-Aug-22 13:50 UTC.
Position N 27°40' W 083°09'.

Length 187 m; draft 7 m.

Type: Tanker. MMSI: 367481310.

Date/timePositionNaut miles runAvg speedWind from/ knotsBaromVisibWave heightAir tempDewpointWater temp
2014-Aug-22 01:29N 27°40' W 083°09'1111.5
2014-Aug-22 00:33N 27°37' W 082°58'1211.6
2014-Aug-21 23:33N 27°36' W 082°45'1111.5
2014-Aug-21 22:33N 27°42' W 082°33'7 0.2
2014-Aug-20 11:33N 27°48' W 082°29'9 9.3
2014-Aug-20 10:34N 27°41' W 082°35'9 9.5
2014-Aug-20 09:33N 27°36' W 082°45'1010.0
2014-Aug-20 08:34N 27°36' W 082°56'1010.2
2014-Aug-20 07:33N 27°37' W 083°08'405 9.4
2014-Aug-18 12:32N 29°56' W 090°21'10 9.9
2014-Aug-18 11:33N 30°03' W 090°29'6 5.6
2014-Aug-18 10:33N 30°03' W 090°35'0 0.0
2014-Aug-18 09:27N 30°03' W 090°35'0 0.0
2014-Aug-18 08:33N 30°03' W 090°35'0 0.0
2014-Aug-18 07:33N 30°03' W 090°35'0 0.0
2014-Aug-18 06:33N 30°03' W 090°35'0 0.0
2014-Aug-18 05:33N 30°03' W 090°35'0 0.0
2014-Aug-18 04:33N 30°03' W 090°35'0 0.0
2014-Aug-18 03:33N 30°03' W 090°35'0 0.0
2014-Aug-18 02:33N 30°03' W 090°35'0 0.0
2014-Aug-18 01:33N 30°03' W 090°35'0 0.0
2014-Aug-18 00:33N 30°03' W 090°35'0 0.0
2014-Aug-17 18:30N 30°03' W 090°35'0 0.0
2014-Aug-17 17:33N 30°03' W 090°35'0 0.0
2014-Aug-17 16:33N 30°03' W 090°35'0 0.0
2014-Aug-17 15:27N 30°03' W 090°35'0 0.0
2014-Aug-17 14:27N 30°03' W 090°35'0 0.0
2014-Aug-17 13:27N 30°03' W 090°35'0 0.0
2014-Aug-17 12:30N 30°03' W 090°35'0 0.0
2014-Aug-17 11:33N 30°03' W 090°35'0 0.0
2014-Aug-17 10:33N 30°03' W 090°35'0 0.0
2014-Aug-17 09:33N 30°03' W 090°35'0 0.0
2014-Aug-17 08:33N 30°03' W 090°35'0 0.0
2014-Aug-17 07:33N 30°03' W 090°35'0 0.0
2014-Aug-17 06:33N 30°03' W 090°35'0 0.0
2014-Aug-17 05:33N 30°03' W 090°35'0 0.0
2014-Aug-17 04:33N 30°03' W 090°35'0 0.0
2014-Aug-17 03:33N 30°03' W 090°35'0 0.0
2014-Aug-17 02:33N 30°03' W 090°35'0 0.0
2014-Aug-17 01:33N 30°03' W 090°35'0 0.0
2014-Aug-17 00:33N 30°03' W 090°35'0 0.0
2014-Aug-16 23:33N 30°03' W 090°35'0 0.0
2014-Aug-16 22:27N 30°03' W 090°35'0 0.0
2014-Aug-16 21:33N 30°03' W 090°35'0 0.0
2014-Aug-16 20:33N 30°03' W 090°35'0 0.0
2014-Aug-16 19:33N 30°03' W 090°35'0 0.0
2014-Aug-16 18:33N 30°03' W 090°35'0 0.0
2014-Aug-16 17:33N 30°03' W 090°35'0 0.0
2014-Aug-16 16:33N 30°03' W 090°35'3 3.4
2014-Aug-16 15:33N 30°03' W 090°32'420 9.5
2014-Aug-14 19:20N 27°38' W 083°01'911.1
2014-Aug-14 18:33N 27°36' W 082°51'1010.4
2014-Aug-14 17:33N 27°37' W 082°40'1110.6
2014-Aug-14 16:33N 27°45' W 082°32'12 0.4
2014-Aug-13 09:17N 27°56' W 082°27'5 7.0
2014-Aug-13 08:33N 27°51' W 082°27'9 8.6
2014-Aug-13 07:32N 27°43' W 082°32'10 9.8
2014-Aug-13 06:33N 27°37' W 082°40'4 4.3
2014-Aug-13 05:33N 27°36' W 082°45'0 0.0
2014-Aug-13 04:33N 27°36' W 082°45'0 0.1
2014-Aug-13 03:33N 27°36' W 082°45'0 0.1
2014-Aug-13 02:33N 27°36' W 082°45'0 0.0
2014-Aug-13 01:33N 27°36' W 082°45'0 0.0
2014-Aug-13 00:33N 27°36' W 082°45'0 0.0
2014-Aug-12 23:33N 27°36' W 082°45'0 0.0
2014-Aug-12 22:33N 27°36' W 082°45'0 0.1
2014-Aug-12 21:33N 27°36' W 082°45'8 8.4
2014-Aug-12 20:33N 27°36' W 082°55'1010.1
2014-Aug-12 19:31N 27°37' W 083°06'  
Track history (hours):
 
Tides and Currents Weather Stations Pressure Air Temp Water Temp Dewpoint Dewpoint Depression Visibility Wind Speed Wind Dir Waves Ship Positions

Osg Courageous

More information available from US FCC via Universal Licensing System and Coast Guard Vessel Documentation Center.

Last reported at 2014-Aug-22 01:29 UTC. Time now 2014-Aug-22 13:50 UTC.
Position N 27°40' W 083°09'.

Length 187 m; draft 7 m.

Type: Tanker. MMSI: 367481310.

Date/timePositionNaut miles runAvg speedWind from/ knotsBaromVisibWave heightAir tempDewpointWater temp
2014-Aug-22 01:29N 27°40' W 083°09'1111.5
2014-Aug-22 00:33N 27°37' W 082°58'1211.6
2014-Aug-21 23:33N 27°36' W 082°45'1111.5
2014-Aug-21 22:33N 27°42' W 082°33'7 0.2
2014-Aug-20 11:33N 27°48' W 082°29'9 9.3
2014-Aug-20 10:34N 27°41' W 082°35'9 9.5
2014-Aug-20 09:33N 27°36' W 082°45'1010.0
2014-Aug-20 08:34N 27°36' W 082°56'1010.2
2014-Aug-20 07:33N 27°37' W 083°08'405 9.4
2014-Aug-18 12:32N 29°56' W 090°21'10 9.9
2014-Aug-18 11:33N 30°03' W 090°29'6 5.6
2014-Aug-18 10:33N 30°03' W 090°35'0 0.0
2014-Aug-18 09:27N 30°03' W 090°35'0 0.0
2014-Aug-18 08:33N 30°03' W 090°35'0 0.0
2014-Aug-18 07:33N 30°03' W 090°35'0 0.0
2014-Aug-18 06:33N 30°03' W 090°35'0 0.0
2014-Aug-18 05:33N 30°03' W 090°35'0 0.0
2014-Aug-18 04:33N 30°03' W 090°35'0 0.0
2014-Aug-18 03:33N 30°03' W 090°35'0 0.0
2014-Aug-18 02:33N 30°03' W 090°35'0 0.0
2014-Aug-18 01:33N 30°03' W 090°35'0 0.0
2014-Aug-18 00:33N 30°03' W 090°35'0 0.0
2014-Aug-17 18:30N 30°03' W 090°35'0 0.0
2014-Aug-17 17:33N 30°03' W 090°35'0 0.0
2014-Aug-17 16:33N 30°03' W 090°35'0 0.0
2014-Aug-17 15:27N 30°03' W 090°35'0 0.0
2014-Aug-17 14:27N 30°03' W 090°35'0 0.0
2014-Aug-17 13:27N 30°03' W 090°35'0 0.0
2014-Aug-17 12:30N 30°03' W 090°35'0 0.0
2014-Aug-17 11:33N 30°03' W 090°35'0 0.0
2014-Aug-17 10:33N 30°03' W 090°35'0 0.0
2014-Aug-17 09:33N 30°03' W 090°35'0 0.0
2014-Aug-17 08:33N 30°03' W 090°35'0 0.0
2014-Aug-17 07:33N 30°03' W 090°35'0 0.0
2014-Aug-17 06:33N 30°03' W 090°35'0 0.0
2014-Aug-17 05:33N 30°03' W 090°35'0 0.0
2014-Aug-17 04:33N 30°03' W 090°35'0 0.0
2014-Aug-17 03:33N 30°03' W 090°35'0 0.0
2014-Aug-17 02:33N 30°03' W 090°35'0 0.0
2014-Aug-17 01:33N 30°03' W 090°35'0 0.0
2014-Aug-17 00:33N 30°03' W 090°35'0 0.0
2014-Aug-16 23:33N 30°03' W 090°35'0 0.0
2014-Aug-16 22:27N 30°03' W 090°35'0 0.0
2014-Aug-16 21:33N 30°03' W 090°35'0 0.0
2014-Aug-16 20:33N 30°03' W 090°35'0 0.0
2014-Aug-16 19:33N 30°03' W 090°35'0 0.0
2014-Aug-16 18:33N 30°03' W 090°35'0 0.0
2014-Aug-16 17:33N 30°03' W 090°35'0 0.0
2014-Aug-16 16:33N 30°03' W 090°35'3 3.4
2014-Aug-16 15:33N 30°03' W 090°32'420 9.5
2014-Aug-14 19:20N 27°38' W 083°01'911.1
2014-Aug-14 18:33N 27°36' W 082°51'1010.4
2014-Aug-14 17:33N 27°37' W 082°40'1110.6
2014-Aug-14 16:33N 27°45' W 082°32'12 0.4
2014-Aug-13 09:17N 27°56' W 082°27'5 7.0
2014-Aug-13 08:33N 27°51' W 082°27'9 8.6
2014-Aug-13 07:32N 27°43' W 082°32'10 9.8
2014-Aug-13 06:33N 27°37' W 082°40'4 4.3
2014-Aug-13 05:33N 27°36' W 082°45'0 0.0
2014-Aug-13 04:33N 27°36' W 082°45'0 0.1
2014-Aug-13 03:33N 27°36' W 082°45'0 0.1
2014-Aug-13 02:33N 27°36' W 082°45'0 0.0
2014-Aug-13 01:33N 27°36' W 082°45'0 0.0
2014-Aug-13 00:33N 27°36' W 082°45'0 0.0
2014-Aug-12 23:33N 27°36' W 082°45'0 0.0
2014-Aug-12 22:33N 27°36' W 082°45'0 0.1
2014-Aug-12 21:33N 27°36' W 082°45'8 8.4
2014-Aug-12 20:33N 27°36' W 082°55'1010.1
2014-Aug-12 19:31N 27°37' W 083°06'  

Dump ship's entire track history